Ana Sayfa
METAR-TAF:

METAR-TAF

Havaalanları :

Plainview, Teksas, Amerika Birleşik Devletleri

Enlem: 34-10-05N, Boylam: 101-43-02W, yükseklik: 1028 m

Güncel hava durumu gözlemi

Rapor saat 14:55 UTC de 30 dakika önce yapıldı.
Rüzgar güney/güneybatıdan 13 kt ve 17 kt'a kadar ani rüzgarlar
Sıcaklık 27°C
Nem 58%
Basınç 1016 hPa
Görüş mesafesi: 16.1 km
Açık gökyüzü

METAR: KPVW 251455Z AUTO 21013G17KT 10SM CLR 27/18 A3001 RMK AO2 T02690176

Saat: 10:25 (15:25 UTC)

Tahmin

Rapor saat 12:09 UTC de 3 saat ve 16 dakika önce yapıldı.
Ayın 25'si saat 12 UTC'den ayın 26'si saat 12 UTC'ye kadar geçerli Tahmin
Rüzgar güney/güneybatıdan 7 kt
Görüş mesafesi: 10 km
25000 ft yükseklikte parçalı bulutlu
Ayın 26'si saat 0100 UTC'den
Rüzgar güneydan 11 kt
Görüş mesafesi: 10 km
25000 ft yükseklikte parçalı çok bulutlu

TAF: KPVW 251209Z 2512/2612 20007KT P6SM SCT250 FM260100 17011KT P6SM BKN250

4.000'den fazla havaalanı için hava durumu gözlemleri ve tahminleri (METAR ve TAF raporları).

Kullanılabilir istasyonlar harita üzerinde sarı ve kırmızı noktalarla gösterilir.

İstasyonun adını görmek için fareyi noktanın üzerinde gezdirin.

Sonrasında hava gözlem ve tahminlerini görmek için tıklayın.

Haritayı değiştirmek için: yaklaştırmak için siyah artı işaretli yeşil düğmeye ve uzaklaştırmak için de eksi işaretli düğmeye hızla tıklayın; bitişik haritalar için yeşil okları kullanın.


METAR-TAF: